Time;durP1;ratioP1;P1;durP2;ratioP2;P2;SDS_P1;SDS_P2;PMS_P1;PMS_P2;Temp;Humidity;BMP_temperature;BMP_pressure;BME280_temperature;BME280_humidity;BME280_pressure;Samples;Min_cycle;Max_cycle;Signal;HPM_P1;HPM_P2
2021/08/24 00:00:56;;;;;;;2.80;2.40;;;15.30;99.90;;;;;;5117765;27;20424;-38
2021/08/24 00:03:22;;;;;;;4.00;2.30;;;15.30;99.90;;;;;;5125795;27;20198;-39
2021/08/24 00:05:48;;;;;;;5.43;2.73;;;15.30;99.90;;;;;;5126772;27;20323;-39
2021/08/24 00:08:15;;;;;;;3.00;2.70;;;15.30;99.90;;;;;;5126209;28;20457;-39
2021/08/24 00:10:50;;;;;;;5.13;3.23;;;15.20;99.90;;;;;;5125801;28;20450;-38
2021/08/24 00:13:17;;;;;;;4.13;2.53;;;15.20;99.90;;;;;;5123853;28;20428;-38
2021/08/24 00:15:44;;;;;;;3.27;2.70;;;15.20;99.90;;;;;;5105847;28;20459;-39
2021/08/24 00:18:11;;;;;;;3.60;3.10;;;15.20;99.90;;;;;;5122607;28;20420;-38
2021/08/24 00:20:39;;;;;;;2.73;2.53;;;15.20;99.90;;;;;;5126034;27;20455;-45
2021/08/24 00:23:08;;;;;;;3.90;2.97;;;15.20;99.90;;;;;;5130676;27;20420;-38
2021/08/24 00:25:35;;;;;;;3.70;2.83;;;15.10;99.90;;;;;;5130639;27;20786;-39
2021/08/24 00:28:01;;;;;;;3.00;2.80;;;15.10;99.90;;;;;;5130523;27;20409;-38
2021/08/24 00:30:26;;;;;;;3.80;2.53;;;15.20;99.90;;;;;;5121200;27;20428;-38
2021/08/24 00:32:52;;;;;;;4.13;2.83;;;15.20;99.90;;;;;;5108555;27;20195;-38
2021/08/24 00:35:18;;;;;;;3.70;2.63;;;15.20;99.90;;;;;;5130016;27;20210;-38
2021/08/24 00:37:43;;;;;;;2.93;2.50;;;15.20;99.90;;;;;;5130429;27;20730;-39
2021/08/24 00:40:10;;;;;;;3.13;2.83;;;15.20;99.90;;;;;;5129583;27;20193;-40
2021/08/24 00:42:37;;;;;;;3.40;2.50;;;15.10;99.90;;;;;;5130232;27;20183;-41
2021/08/24 00:45:06;;;;;;;3.73;2.80;;;15.10;99.90;;;;;;5125134;27;20572;-38
2021/08/24 00:47:34;;;;;;;2.97;2.63;;;15.10;99.90;;;;;;5120866;27;20449;-39
2021/08/24 00:50:31;;;;;;;2.60;2.20;;;15.10;99.90;;;;;;5128873;27;20408;-38
2021/08/24 00:53:00;;;;;;;4.23;3.03;;;15.10;99.90;;;;;;5113003;27;20763;-40
2021/08/24 00:55:26;;;;;;;3.00;2.70;;;15.10;99.90;;;;;;5129833;27;20694;-40
2021/08/24 00:58:00;;;;;;;3.10;2.60;;;15.10;99.90;;;;;;5129964;27;20400;-38
2021/08/24 01:00:28;;;;;;;4.10;2.50;;;15.10;99.90;;;;;;5104762;27;20433;-39
2021/08/24 01:03:08;;;;;;;3.90;2.30;;;15.10;99.90;;;;;;5123403;27;20490;-38
2021/08/24 01:05:36;;;;;;;3.43;2.60;;;15.20;99.90;;;;;;5125205;27;20502;-38
2021/08/24 01:08:23;;;;;;;2.93;2.37;;;15.10;99.90;;;;;;5129517;27;20428;-38
2021/08/24 01:11:24;;;;;;;3.20;2.30;;;15.10;99.90;;;;;;5128943;27;20473;-38
2021/08/24 01:14:18;;;;;;;3.97;2.63;;;15.00;99.90;;;;;;5122992;27;20464;-39
2021/08/24 01:17:00;;;;;;;3.13;2.83;;;14.90;99.90;;;;;;5114959;27;20505;-38
2021/08/24 01:19:50;;;;;;;3.33;2.60;;;14.80;99.90;;;;;;5128464;27;20437;-38
2021/08/24 01:22:57;;;;;;;2.47;2.23;;;14.70;99.90;;;;;;5117430;27;20419;-38
2021/08/24 01:25:33;;;;;;;3.03;2.70;;;14.70;99.90;;;;;;5129523;27;20416;-40
2021/08/24 01:28:18;;;;;;;3.47;2.60;;;14.70;99.90;;;;;;5129039;27;20420;-39
2021/08/24 01:30:54;;;;;;;2.70;2.50;;;14.70;99.90;;;;;;5121109;27;20846;-40
2021/08/24 01:33:40;;;;;;;4.80;2.77;;;14.70;99.90;;;;;;5127619;27;20847;-38
2021/08/24 01:36:14;;;;;;;2.77;2.40;;;14.70;99.90;;;;;;5125467;27;20429;-38
2021/08/24 01:39:21;;;;;;;2.57;2.37;;;14.70;99.90;;;;;;5128690;27;20413;-38
2021/08/24 01:42:13;;;;;;;3.17;2.83;;;14.70;99.90;;;;;;5076131;27;20455;-38
2021/08/24 01:44:51;;;;;;;3.10;2.60;;;14.60;99.90;;;;;;5128881;27;21009;-38
2021/08/24 01:47:37;;;;;;;4.70;3.10;;;14.60;99.90;;;;;;5120808;27;20425;-38
2021/08/24 01:50:09;;;;;;;4.27;2.67;;;14.60;99.90;;;;;;5121864;27;20409;-38
2021/08/24 01:52:41;;;;;;;2.60;2.40;;;14.60;99.90;;;;;;5128896;27;20485;-38
2021/08/24 01:55:25;;;;;;;3.17;2.80;;;14.60;99.90;;;;;;5128787;27;20533;-38
2021/08/24 01:58:03;;;;;;;3.73;2.53;;;14.60;99.90;;;;;;5128829;27;20413;-39
2021/08/24 02:00:32;;;;;;;3.73;2.70;;;14.50;99.90;;;;;;5124923;27;20934;-38
2021/08/24 02:03:08;;;;;;;3.20;2.47;;;14.60;99.90;;;;;;5121323;27;20676;-38
2021/08/24 02:05:34;;;;;;;3.23;2.70;;;14.50;99.90;;;;;;5120992;27;20420;-38
2021/08/24 02:08:08;;;;;;;3.20;2.90;;;14.50;99.90;;;;;;5128787;27;20486;-39
2021/08/24 02:10:35;;;;;;;2.83;2.60;;;14.50;99.90;;;;;;5127944;27;20202;-38
2021/08/24 02:13:02;;;;;;;3.87;2.90;;;14.40;99.90;;;;;;5128623;27;20470;-42
2021/08/24 02:15:36;;;;;;;4.90;3.03;;;14.40;99.90;;;;;;5107398;27;20961;-38
2021/08/24 02:18:03;;;;;;;3.33;3.03;;;14.30;99.90;;;;;;5121799;27;20409;-38
2021/08/24 02:20:35;;;;;;;4.37;2.73;;;14.30;99.90;;;;;;5126582;27;20435;-39
2021/08/24 02:23:13;;;;;;;3.40;3.10;;;14.30;99.90;;;;;;5128287;27;20401;-38
2021/08/24 02:25:43;;;;;;;4.63;2.60;;;14.30;99.90;;;;;;5128119;27;20456;-40
2021/08/24 02:28:14;;;;;;;3.00;2.63;;;14.20;99.90;;;;;;5128416;27;20455;-39
2021/08/24 02:30:53;;;;;;;3.43;2.60;;;14.20;99.90;;;;;;5124137;27;20591;-38
2021/08/24 02:33:21;;;;;;;3.20;2.90;;;14.20;99.90;;;;;;5119233;27;20412;-38
2021/08/24 02:35:59;;;;;;;4.03;2.97;;;14.10;99.90;;;;;;5128010;27;20940;-38
2021/08/24 02:38:34;;;;;;;4.43;3.40;;;14.20;99.90;;;;;;5115499;27;20420;-38
2021/08/24 02:41:08;;;;;;;3.43;3.13;;;14.20;99.90;;;;;;5127194;27;20415;-41
2021/08/24 02:43:58;;;;;;;4.77;3.30;;;14.20;99.90;;;;;;5127056;27;20413;-39
2021/08/24 02:46:29;;;;;;;4.70;3.20;;;14.20;99.90;;;;;;5120065;27;20468;-39
2021/08/24 02:48:59;;;;;;;5.27;2.93;;;14.10;99.90;;;;;;5121286;27;20461;-38
2021/08/24 02:51:26;;;;;;;3.67;3.27;;;14.00;99.90;;;;;;5127591;27;20500;-38
2021/08/24 02:54:07;;;;;;;3.90;2.97;;;14.00;99.90;;;;;;5127426;27;20814;-40
2021/08/24 02:56:33;;;;;;;4.17;3.77;;;13.90;99.90;;;;;;5128030;27;20464;-39
2021/08/24 02:58:59;;;;;;;3.90;3.30;;;13.90;99.90;;;;;;5108496;27;20505;-38
2021/08/24 03:01:25;;;;;;;3.53;3.13;;;13.80;99.90;;;;;;5119746;27;20485;-38
2021/08/24 03:03:51;;;;;;;5.47;3.77;;;13.80;99.90;;;;;;5126031;27;20707;-39
2021/08/24 03:06:16;;;;;;;3.57;3.27;;;13.80;99.90;;;;;;5127591;27;20202;-38
2021/08/24 03:08:42;;;;;;;3.27;2.97;;;13.80;99.90;;;;;;5108125;27;20443;-40
2021/08/24 03:11:09;;;;;;;3.40;3.10;;;13.70;99.90;;;;;;5127361;27;20350;-38
2021/08/24 03:13:58;;;;;;;3.60;3.20;;;13.70;99.90;;;;;;5104910;28;20800;-40
2021/08/24 03:16:33;;;;;;;4.13;3.30;;;13.60;99.90;;;;;;5106047;27;20540;-38
2021/08/24 03:19:03;;;;;;;4.17;3.77;;;13.80;99.90;;;;;;5119364;27;20404;-39
2021/08/24 03:21:33;;;;;;;4.30;3.70;;;13.70;99.90;;;;;;5125020;27;20793;-38
2021/08/24 03:24:01;;;;;;;3.73;3.33;;;13.70;99.90;;;;;;5126827;27;20418;-39
2021/08/24 03:26:29;;;;;;;3.60;3.30;;;13.70;99.90;;;;;;5126802;27;20412;-41
2021/08/24 03:28:56;;;;;;;3.93;3.07;;;13.60;99.90;;;;;;5126412;27;20693;-38
2021/08/24 03:31:22;;;;;;;3.90;3.50;;;13.60;99.90;;;;;;5122007;27;20446;-38
2021/08/24 03:33:48;;;;;;;3.50;3.03;;;13.60;99.90;;;;;;5118087;27;20452;-38
2021/08/24 03:36:15;;;;;;;3.97;3.10;;;13.60;99.90;;;;;;5126814;27;20769;-38
2021/08/24 03:38:41;;;;;;;4.67;3.77;;;13.50;99.90;;;;;;5126620;27;20417;-38
2021/08/24 03:41:09;;;;;;;3.67;3.27;;;13.50;99.90;;;;;;5126362;27;21010;-38
2021/08/24 03:43:36;;;;;;;3.97;3.57;;;13.50;99.90;;;;;;5127119;27;20424;-38
2021/08/24 03:46:02;;;;;;;4.10;3.70;;;13.50;99.90;;;;;;5124826;27;20420;-40
2021/08/24 03:48:28;;;;;;;3.93;3.57;;;13.50;99.90;;;;;;5118059;27;20454;-38
2021/08/24 03:50:54;;;;;;;4.30;3.77;;;13.40;99.90;;;;;;5126001;27;20417;-38
2021/08/24 03:53:20;;;;;;;3.80;3.50;;;13.40;99.90;;;;;;5126733;27;20444;-38
2021/08/24 03:55:45;;;;;;;4.07;3.70;;;13.40;99.90;;;;;;5126313;27;20190;-39
2021/08/24 03:58:12;;;;;;;4.87;4.37;;;13.40;99.90;;;;;;5126669;27;20659;-38
2021/08/24 04:00:42;;;;;;;5.00;4.50;;;13.40;99.90;;;;;;5125767;27;20269;-38
2021/08/24 04:03:08;;;;;;;4.77;3.90;;;13.30;99.90;;;;;;5120673;27;20431;-39
2021/08/24 04:05:33;;;;;;;4.20;3.80;;;13.30;99.90;;;;;;5126146;27;20405;-38
2021/08/24 04:07:59;;;;;;;3.70;3.40;;;13.30;99.90;;;;;;5125856;27;20191;-38
2021/08/24 04:10:25;;;;;;;4.13;3.73;;;13.30;99.90;;;;;;5107070;28;20187;-38
2021/08/24 04:12:51;;;;;;;3.80;3.50;;;13.30;99.90;;;;;;5126551;28;20508;-38
2021/08/24 04:15:16;;;;;;;4.37;3.97;;;13.30;99.90;;;;;;5107988;28;20222;-38
2021/08/24 04:17:42;;;;;;;6.70;3.70;;;13.20;99.90;;;;;;5112326;28;20197;-38
2021/08/24 04:20:11;;;;;;;3.53;3.23;;;13.20;99.90;;;;;;5120871;28;20288;-42
2021/08/24 04:22:40;;;;;;;4.00;3.70;;;13.20;99.90;;;;;;5124464;28;20194;-39
2021/08/24 04:25:07;;;;;;;3.90;3.57;;;13.20;99.90;;;;;;5126292;28;20421;-39
2021/08/24 04:27:32;;;;;;;4.13;3.73;;;13.20;99.90;;;;;;5126016;28;20990;-38
2021/08/24 04:29:58;;;;;;;5.67;4.17;;;13.10;99.90;;;;;;5125586;28;20431;-41
2021/08/24 04:32:27;;;;;;;4.33;3.93;;;13.10;99.90;;;;;;5096968;28;20208;-39
2021/08/24 04:34:54;;;;;;;4.30;3.90;;;13.10;99.90;;;;;;5124474;28;20229;-39
2021/08/24 04:37:20;;;;;;;4.20;3.70;;;13.10;99.90;;;;;;5113886;28;20636;-38
2021/08/24 04:39:46;;;;;;;4.20;3.53;;;13.10;99.90;;;;;;5123117;28;20413;-39
2021/08/24 04:42:12;;;;;;;5.70;3.90;;;13.10;99.90;;;;;;5126312;28;20421;-39
2021/08/24 04:44:38;;;;;;;4.93;3.73;;;13.00;99.90;;;;;;5107883;28;20420;-39
2021/08/24 04:47:04;;;;;;;4.20;3.80;;;13.00;99.90;;;;;;5119945;28;20453;-39
2021/08/24 04:49:30;;;;;;;6.23;4.23;;;13.00;99.90;;;;;;5117065;28;20285;-38
2021/08/24 04:51:55;;;;;;;4.43;3.73;;;12.90;99.90;;;;;;5125985;28;20419;-39
2021/08/24 04:54:21;;;;;;;5.00;4.47;;;13.00;99.90;;;;;;5125784;28;20222;-41
2021/08/24 04:56:46;;;;;;;4.43;4.03;;;13.00;99.90;;;;;;5126912;28;20193;-38
2021/08/24 04:59:12;;;;;;;4.80;4.40;;;13.00;99.90;;;;;;5125293;28;20261;-39
2021/08/24 05:01:38;;;;;;;5.03;4.53;;;13.00;99.90;;;;;;5124542;28;20343;-38
2021/08/24 05:04:04;;;;;;;5.33;4.83;;;13.00;99.90;;;;;;5113519;28;20183;-38
2021/08/24 05:06:29;;;;;;;4.63;4.23;;;13.10;99.90;;;;;;5125984;27;20199;-38
2021/08/24 05:08:55;;;;;;;7.47;5.30;;;13.10;99.90;;;;;;5122300;27;20499;-38
2021/08/24 05:11:21;;;;;;;5.63;4.73;;;13.10;99.90;;;;;;5120286;27;20358;-38
2021/08/24 05:13:47;;;;;;;4.80;4.27;;;13.20;99.90;;;;;;5123419;27;20204;-38
2021/08/24 05:16:12;;;;;;;7.37;4.77;;;13.20;99.90;;;;;;5108859;28;20980;-39
2021/08/24 05:18:40;;;;;;;6.47;5.10;;;13.20;99.90;;;;;;5117197;27;20683;-38
2021/08/24 05:21:13;;;;;;;5.30;4.80;;;13.30;99.90;;;;;;5129311;27;20174;-38
2021/08/24 05:23:40;;;;;;;5.83;5.00;;;13.30;99.90;;;;;;5115924;27;20858;-38
2021/08/24 05:26:08;;;;;;;13.67;5.00;;;13.40;99.90;;;;;;5129408;27;20961;-39
2021/08/24 05:28:34;;;;;;;6.87;5.10;;;13.50;99.90;;;;;;5110848;27;20977;-39
2021/08/24 05:30:59;;;;;;;5.73;5.03;;;13.50;99.90;;;;;;5128637;27;20428;-38
2021/08/24 05:33:25;;;;;;;6.23;5.63;;;13.50;99.90;;;;;;5119366;27;20576;-38
2021/08/24 05:35:51;;;;;;;5.83;5.17;;;13.50;99.90;;;;;;5128334;27;20176;-37
2021/08/24 05:38:16;;;;;;;5.60;5.10;;;13.50;99.90;;;;;;5126904;27;20548;-39
2021/08/24 05:40:42;;;;;;;6.80;5.43;;;13.60;99.90;;;;;;5128705;27;20180;-38
2021/08/24 05:43:08;;;;;;;6.77;6.07;;;13.70;99.90;;;;;;5110836;27;20178;-38
2021/08/24 05:45:33;;;;;;;6.50;5.93;;;13.70;99.90;;;;;;5128890;27;20187;-38
2021/08/24 05:47:59;;;;;;;6.53;5.83;;;13.80;99.90;;;;;;5103131;28;20212;-40
2021/08/24 05:50:26;;;;;;;7.30;6.27;;;13.90;99.90;;;;;;5124962;27;20203;-38
2021/08/24 05:52:52;;;;;;;7.43;6.10;;;13.90;99.90;;;;;;5122369;27;20654;-38
2021/08/24 05:55:18;;;;;;;7.37;6.00;;;14.00;99.90;;;;;;5128900;27;20483;-40
2021/08/24 05:57:44;;;;;;;7.40;6.60;;;14.10;99.90;;;;;;5128983;27;20425;-38
2021/08/24 06:00:10;;;;;;;7.63;6.70;;;14.10;99.90;;;;;;5128357;27;20625;-39
2021/08/24 06:02:37;;;;;;;6.80;6.20;;;14.30;99.90;;;;;;5124963;27;20608;-39
2021/08/24 06:05:05;;;;;;;8.67;7.07;;;14.40;99.90;;;;;;5122271;27;20416;-38
2021/08/24 06:07:30;;;;;;;8.03;7.33;;;14.50;99.90;;;;;;5125913;27;20405;-39
2021/08/24 06:09:58;;;;;;;8.40;7.40;;;14.50;99.90;;;;;;5128321;27;20813;-39
2021/08/24 06:12:25;;;;;;;8.03;7.23;;;14.50;99.90;;;;;;5128462;27;20190;-39
2021/08/24 06:14:51;;;;;;;8.27;7.47;;;14.60;99.90;;;;;;5113914;27;20922;-38
2021/08/24 06:17:17;;;;;;;8.97;7.23;;;14.70;99.90;;;;;;5107437;28;20417;-39
2021/08/24 06:19:42;;;;;;;7.10;6.50;;;14.80;99.90;;;;;;5121130;27;20436;-39
2021/08/24 06:22:08;;;;;;;7.53;6.80;;;14.90;99.90;;;;;;5128047;27;20183;-38
2021/08/24 06:24:36;;;;;;;9.27;8.37;;;15.00;99.90;;;;;;5110785;27;20565;-41
2021/08/24 06:27:02;;;;;;;7.60;6.73;;;15.20;99.90;;;;;;5129700;27;20762;-37
2021/08/24 06:29:28;;;;;;;7.90;7.20;;;15.20;99.90;;;;;;5126838;27;20423;-39
2021/08/24 06:31:59;;;;;;;9.20;8.00;;;15.30;99.90;;;;;;5127226;27;20785;-39
2021/08/24 06:34:24;;;;;;;7.97;7.17;;;15.40;99.90;;;;;;5120015;27;20206;-41
2021/08/24 06:36:51;;;;;;;8.07;7.27;;;15.40;99.90;;;;;;5126561;27;20423;-37
2021/08/24 06:39:17;;;;;;;8.07;7.27;;;15.50;99.90;;;;;;5126071;27;20733;-40
2021/08/24 06:41:42;;;;;;;11.93;7.93;;;15.60;99.90;;;;;;5127300;27;20412;-38
2021/08/24 06:44:10;;;;;;;9.23;8.03;;;15.70;99.90;;;;;;5126633;27;20477;-38
2021/08/24 06:46:36;;;;;;;9.33;8.40;;;15.70;99.90;;;;;;5127795;27;20686;-38
2021/08/24 06:49:01;;;;;;;8.30;7.30;;;15.80;99.90;;;;;;5117644;27;20423;-38
2021/08/24 06:51:27;;;;;;;8.47;7.67;;;15.90;99.90;;;;;;5127290;27;20183;-38
2021/08/24 06:53:53;;;;;;;8.17;7.37;;;16.00;99.90;;;;;;5125555;27;20199;-40
2021/08/24 06:56:19;;;;;;;10.77;6.53;;;16.10;99.90;;;;;;5110832;27;20290;-39
2021/08/24 06:58:47;;;;;;;8.13;7.33;;;16.10;99.90;;;;;;5126841;27;20191;-38
2021/08/24 07:01:18;;;;;;;7.87;6.90;;;16.20;99.90;;;;;;5127302;27;20417;-39
2021/08/24 07:03:44;;;;;;;8.13;7.37;;;16.30;99.90;;;;;;5120912;27;20436;-38
2021/08/24 07:06:10;;;;;;;8.43;7.40;;;16.30;99.90;;;;;;5126318;27;20876;-40
2021/08/24 07:08:36;;;;;;;7.53;6.83;;;16.40;99.90;;;;;;5124808;27;20442;-40
2021/08/24 07:11:01;;;;;;;8.63;7.30;;;16.50;99.90;;;;;;5127597;27;20865;-39
2021/08/24 07:13:28;;;;;;;7.30;6.60;;;16.50;99.90;;;;;;5120532;27;20370;-38
2021/08/24 07:15:54;;;;;;;7.30;6.30;;;16.60;99.90;;;;;;5127193;27;20796;-43
2021/08/24 07:18:21;;;;;;;9.17;7.00;;;16.70;99.90;;;;;;5120316;27;20495;-41
2021/08/24 07:20:51;;;;;;;8.73;7.30;;;16.70;99.90;;;;;;5119989;27;20440;-39
2021/08/24 07:23:17;;;;;;;7.43;6.77;;;16.70;99.90;;;;;;5126845;27;20191;-39
2021/08/24 07:25:43;;;;;;;6.67;5.70;;;16.70;99.90;;;;;;5125093;27;20447;-38
2021/08/24 07:28:10;;;;;;;7.30;6.67;;;16.70;99.90;;;;;;5124425;27;20271;-39
2021/08/24 07:30:38;;;;;;;8.40;6.03;;;16.70;99.90;;;;;;5125120;27;20187;-39
2021/08/24 07:33:04;;;;;;;7.07;6.37;;;16.70;99.90;;;;;;5119128;27;20859;-38
2021/08/24 07:35:30;;;;;;;6.53;5.93;;;16.70;99.90;;;;;;5103584;27;20490;-38
2021/08/24 07:37:56;;;;;;;11.10;6.33;;;16.70;99.90;;;;;;5126551;27;20187;-38
2021/08/24 07:40:22;;;;;;;8.20;6.73;;;16.80;99.90;;;;;;5125446;27;20175;-42
2021/08/24 07:42:48;;;;;;;7.63;6.83;;;16.70;99.90;;;;;;5123706;27;20429;-38
2021/08/24 07:45:14;;;;;;;7.20;6.50;;;16.70;99.90;;;;;;5123051;27;20584;-42
2021/08/24 07:47:40;;;;;;;7.63;6.30;;;16.80;99.90;;;;;;5123960;27;20578;-39
2021/08/24 07:50:07;;;;;;;9.73;7.33;;;16.80;99.90;;;;;;5080353;27;20873;-38
2021/08/24 07:52:32;;;;;;;7.40;6.60;;;16.90;99.90;;;;;;5126629;27;20304;-41
2021/08/24 07:54:58;;;;;;;7.20;6.57;;;16.80;99.90;;;;;;5127022;27;20784;-38
2021/08/24 07:57:24;;;;;;;6.67;6.13;;;16.90;99.90;;;;;;5126577;27;20641;-38
2021/08/24 07:59:50;;;;;;;6.27;5.67;;;16.80;99.90;;;;;;5107114;27;20766;-40
2021/08/24 08:02:17;;;;;;;7.00;6.30;;;16.80;99.90;;;;;;5124349;27;20266;-38
2021/08/24 08:04:43;;;;;;;6.97;6.10;;;16.80;99.90;;;;;;5117975;27;20201;-39
2021/08/24 08:07:10;;;;;;;5.77;5.23;;;16.90;99.90;;;;;;5125111;27;20479;-39
2021/08/24 08:09:36;;;;;;;5.40;4.90;;;17.00;99.90;;;;;;5124647;27;20428;-39
2021/08/24 08:12:02;;;;;;;6.53;5.20;;;16.90;99.90;;;;;;5119065;28;20439;-38
2021/08/24 08:14:28;;;;;;;7.90;5.70;;;16.90;99.90;;;;;;5128124;28;20218;-39
2021/08/24 08:16:53;;;;;;;7.63;5.60;;;17.00;99.90;;;;;;5109126;28;20430;-41
2021/08/24 08:19:19;;;;;;;5.70;5.10;;;17.00;99.90;;;;;;5105868;28;20192;-39
2021/08/24 08:21:45;;;;;;;5.10;4.60;;;17.00;99.90;;;;;;5124973;28;20337;-42
2021/08/24 08:24:11;;;;;;;6.67;4.40;;;17.00;99.90;;;;;;5124129;28;20198;-39
2021/08/24 08:26:37;;;;;;;6.17;4.30;;;17.10;99.90;;;;;;5125843;28;20195;-39
2021/08/24 08:29:06;;;;;;;5.53;3.80;;;17.10;99.90;;;;;;5125238;28;20235;-39
2021/08/24 08:31:33;;;;;;;4.13;3.67;;;17.20;99.90;;;;;;5125864;28;20428;-38
2021/08/24 08:34:00;;;;;;;5.80;3.40;;;17.30;99.90;;;;;;5119327;28;20465;-39
2021/08/24 08:36:26;;;;;;;5.70;3.60;;;17.30;99.90;;;;;;5105335;28;20431;-41
2021/08/24 08:38:52;;;;;;;5.97;3.43;;;17.40;99.90;;;;;;5124649;28;20907;-41
2021/08/24 08:41:31;;;;;;;6.20;2.57;;;17.50;99.90;;;;;;5125647;27;20635;-39
2021/08/24 08:44:10;;;;;;;3.30;2.70;;;17.40;99.90;;;;;;5129959;27;20420;-38
2021/08/24 08:46:43;;;;;;;2.87;2.00;;;17.50;99.90;;;;;;5130374;27;20416;-43
2021/08/24 08:49:29;;;;;;;3.00;2.17;;;17.50;99.90;;;;;;5125198;27;20451;-42
2021/08/24 08:52:18;;;;;;;2.80;2.30;;;17.60;99.90;;;;;;5130168;27;20413;-40
2021/08/24 08:54:43;;;;;;;2.60;2.20;;;17.60;99.90;;;;;;5128703;27;20455;-38
2021/08/24 08:57:13;;;;;;;2.43;1.97;;;17.60;99.90;;;;;;5111340;27;20420;-38
2021/08/24 08:59:48;;;;;;;3.30;2.50;;;17.70;99.90;;;;;;5129529;27;20187;-39
2021/08/24 09:02:45;;;;;;;4.03;2.73;;;17.80;99.90;;;;;;5130056;27;20686;-39
2021/08/24 09:05:13;;;;;;;4.70;2.67;;;17.80;99.90;;;;;;5120797;27;20483;-41
2021/08/24 09:07:43;;;;;;;4.00;2.00;;;17.80;99.90;;;;;;5129481;27;20499;-40
2021/08/24 09:10:35;;;;;;;3.90;2.30;;;17.90;99.90;;;;;;5128878;27;20440;-40
2021/08/24 09:13:12;;;;;;;3.27;2.33;;;18.00;99.90;;;;;;5115759;27;20469;-40
2021/08/24 09:15:45;;;;;;;4.03;2.73;;;18.10;99.90;;;;;;5117368;27;20521;-39
2021/08/24 09:18:23;;;;;;;5.83;3.03;;;18.20;99.90;;;;;;5129549;27;20535;-38
2021/08/24 09:21:04;;;;;;;3.60;2.77;;;18.30;99.90;;;;;;5119242;27;20424;-38
2021/08/24 09:23:30;;;;;;;3.53;2.20;;;18.30;99.90;;;;;;5123448;27;20409;-42
2021/08/24 09:26:08;;;;;;;4.77;2.10;;;18.40;99.90;;;;;;5109049;28;20426;-41
2021/08/24 09:28:34;;;;;;;2.70;2.40;;;18.40;99.90;;;;;;5122859;27;20503;-43
2021/08/24 09:31:02;;;;;;;2.67;2.40;;;18.40;99.90;;;;;;5128717;27;20421;-39
2021/08/24 09:33:28;;;;;;;4.43;2.40;;;18.50;99.90;;;;;;5110713;27;20952;-39
2021/08/24 09:35:56;;;;;;;3.93;2.37;;;18.60;99.90;;;;;;5116887;27;20433;-40
2021/08/24 09:38:28;;;;;;;4.40;2.60;;;18.70;99.90;;;;;;5110705;27;20893;-38
2021/08/24 09:40:57;;;;;;;3.20;2.30;;;18.80;99.90;;;;;;5128844;27;20432;-40
2021/08/24 09:43:35;;;;;;;3.90;2.47;;;18.90;99.90;;;;;;5128919;27;20461;-43
2021/08/24 09:46:15;;;;;;;2.47;1.90;;;19.00;99.90;;;;;;5129267;27;20461;-42
2021/08/24 09:48:46;;;;;;;3.97;2.60;;;19.00;99.90;;;;;;5127513;27;20422;-40
2021/08/24 09:51:39;;;;;;;4.50;2.13;;;19.10;99.90;;;;;;5118084;27;20419;-40
2021/08/24 09:54:15;;;;;;;4.23;2.63;;;19.20;99.90;;;;;;5108984;27;20918;-40
2021/08/24 09:56:54;;;;;;;5.33;2.30;;;19.20;99.90;;;;;;5128911;27;20428;-39
2021/08/24 09:59:28;;;;;;;2.53;2.20;;;19.30;99.90;;;;;;5128035;27;20541;-41
2021/08/24 10:01:54;;;;;;;5.00;2.57;;;19.40;99.90;;;;;;5128884;27;20417;-42
2021/08/24 10:04:20;;;;;;;3.97;2.77;;;19.50;99.90;;;;;;5122400;27;20574;-42
2021/08/24 10:07:29;;;;;;;2.90;2.07;;;19.60;99.90;;;;;;5126751;27;20504;-38
2021/08/24 10:09:58;;;;;;;3.17;2.50;;;19.60;99.90;;;;;;5114209;27;20285;-38
2021/08/24 10:12:30;;;;;;;4.33;2.30;;;19.60;99.90;;;;;;5128429;27;20428;-38
2021/08/24 10:14:56;;;;;;;4.80;2.60;;;19.70;99.90;;;;;;5112706;27;20560;-39
2021/08/24 10:17:30;;;;;;;3.97;2.40;;;19.80;99.90;;;;;;5108185;28;20775;-39
2021/08/24 10:19:57;;;;;;;4.23;2.77;;;19.80;99.90;;;;;;5110600;27;20425;-39
2021/08/24 10:22:32;;;;;;;3.00;2.17;;;19.80;99.20;;;;;;5124781;27;20496;-40
2021/08/24 10:25:10;;;;;;;4.03;2.50;;;19.90;99.60;;;;;;5125581;27;20420;-39
2021/08/24 10:27:42;;;;;;;4.43;2.40;;;19.90;99.90;;;;;;5128102;27;20910;-39
2021/08/24 10:30:15;;;;;;;2.77;2.33;;;20.00;99.90;;;;;;5114376;27;20416;-39
2021/08/24 10:32:53;;;;;;;2.83;2.43;;;20.00;99.90;;;;;;5128316;27;20471;-42
2021/08/24 10:35:39;;;;;;;4.57;2.60;;;20.10;99.90;;;;;;5116835;27;20576;-39
2021/08/24 10:38:05;;;;;;;3.07;2.20;;;20.10;99.90;;;;;;5125514;27;20936;-41
2021/08/24 10:40:46;;;;;;;3.40;2.57;;;20.20;99.90;;;;;;5127272;27;20428;-40
2021/08/24 10:43:13;;;;;;;4.43;3.20;;;20.20;99.90;;;;;;5128124;27;20811;-43
2021/08/24 10:46:04;;;;;;;3.60;2.57;;;20.30;99.90;;;;;;5128230;27;20417;-42
2021/08/24 10:48:33;;;;;;;2.20;2.00;;;20.30;99.90;;;;;;5113946;27;21063;-39
2021/08/24 10:51:35;;;;;;;4.13;2.47;;;20.40;99.90;;;;;;5116926;27;20425;-42
2021/08/24 10:54:16;;;;;;;4.37;2.37;;;20.40;99.90;;;;;;5124278;27;20520;-43
2021/08/24 10:57:01;;;;;;;3.50;2.73;;;20.50;99.60;;;;;;5127451;27;20416;-42
2021/08/24 11:00:03;;;;;;;4.07;2.40;;;20.50;99.80;;;;;;5127042;27;20415;-39
2021/08/24 11:03:07;;;;;;;3.03;2.40;;;20.50;99.90;;;;;;5126939;27;20766;-41
2021/08/24 11:05:51;;;;;;;3.37;2.20;;;20.60;99.90;;;;;;5118180;27;20511;-43
2021/08/24 11:08:39;;;;;;;5.00;2.23;;;20.50;99.90;;;;;;5127265;27;20457;-40
2021/08/24 11:11:41;;;;;;;3.20;2.40;;;20.60;99.90;;;;;;5122997;27;20465;-45
2021/08/24 11:14:12;;;;;;;3.43;2.40;;;20.60;99.90;;;;;;5125801;27;20448;-39
2021/08/24 11:17:07;;;;;;;3.20;2.57;;;20.60;99.80;;;;;;5124874;27;20421;-39
2021/08/24 11:19:56;;;;;;;4.00;2.50;;;20.60;99.70;;;;;;5124181;27;20416;-42
2021/08/24 11:22:43;;;;;;;2.80;2.03;;;20.60;99.00;;;;;;5107113;27;20780;-39
2021/08/24 11:25:25;;;;;;;3.10;2.37;;;20.70;99.60;;;;;;5127466;27;20409;-41
2021/08/24 11:28:00;;;;;;;3.03;2.40;;;20.70;99.80;;;;;;5125803;27;20957;-43
2021/08/24 11:30:44;;;;;;;3.23;2.33;;;20.80;99.90;;;;;;5126584;27;20489;-41
2021/08/24 11:33:32;;;;;;;3.67;2.43;;;20.80;99.40;;;;;;5127138;27;20461;-39
2021/08/24 11:36:03;;;;;;;3.30;2.03;;;20.90;99.30;;;;;;5119839;27;20772;-46
2021/08/24 11:38:35;;;;;;;2.40;1.70;;;20.90;99.10;;;;;;5126704;27;20409;-41
2021/08/24 11:41:03;;;;;;;5.00;2.80;;;20.90;99.70;;;;;;5126496;27;20405;-40
2021/08/24 11:43:39;;;;;;;3.00;2.17;;;21.00;99.40;;;;;;5126684;27;20409;-44
2021/08/24 11:46:17;;;;;;;2.87;2.33;;;21.00;98.50;;;;;;5124222;27;20443;-39
2021/08/24 11:48:48;;;;;;;2.53;2.10;;;21.00;98.50;;;;;;5126106;27;20427;-40
2021/08/24 11:51:27;;;;;;;3.00;2.30;;;21.00;97.80;;;;;;5112157;27;20453;-41
2021/08/24 11:54:05;;;;;;;3.83;2.43;;;21.00;97.30;;;;;;5125049;27;20456;-39
2021/08/24 11:56:47;;;;;;;3.90;2.20;;;21.10;98.10;;;;;;5126754;27;20420;-39
2021/08/24 11:59:27;;;;;;;5.90;2.50;;;20.90;97.80;;;;;;5125693;27;20507;-41
2021/08/24 12:01:53;;;;;;;3.27;2.20;;;20.90;97.10;;;;;;5126424;27;20412;-39
2021/08/24 12:04:22;;;;;;;3.83;2.20;;;20.80;97.90;;;;;;5126122;27;20436;-41
2021/08/24 12:07:02;;;;;;;2.50;2.07;;;20.90;97.00;;;;;;5115522;27;20454;-42
2021/08/24 12:09:49;;;;;;;3.47;2.90;;;20.90;98.30;;;;;;5125128;27;20734;-43
2021/08/24 12:12:44;;;;;;;2.53;2.00;;;21.00;98.50;;;;;;5120902;27;20421;-44
2021/08/24 12:15:54;;;;;;;2.93;2.40;;;21.10;97.20;;;;;;5126058;27;20470;-38
2021/08/24 12:18:25;;;;;;;4.83;2.70;;;21.10;97.80;;;;;;5082762;27;20421;-41
2021/08/24 12:20:58;;;;;;;2.83;2.03;;;21.20;98.50;;;;;;5123095;27;21024;-41
2021/08/24 12:23:43;;;;;;;3.13;2.20;;;21.20;97.70;;;;;;5130784;27;20733;-39
2021/08/24 12:26:27;;;;;;;2.33;2.10;;;21.30;97.20;;;;;;5133300;27;20427;-41
2021/08/24 12:29:03;;;;;;;3.03;2.23;;;21.40;98.40;;;;;;5132735;27;20778;-40
2021/08/24 12:31:48;;;;;;;3.40;1.90;;;21.50;98.70;;;;;;5133054;27;20416;-41
2021/08/24 12:34:32;;;;;;;3.30;2.47;;;21.50;99.10;;;;;;5133260;27;20606;-39
2021/08/24 12:36:58;;;;;;;3.03;2.63;;;21.60;97.80;;;;;;5123338;27;20800;-39
2021/08/24 12:39:43;;;;;;;3.33;2.27;;;21.50;98.30;;;;;;5113763;27;20417;-43
2021/08/24 12:42:29;;;;;;;8.10;2.77;;;21.50;96.70;;;;;;5133069;27;20508;-41
2021/08/24 12:45:25;;;;;;;2.97;2.40;;;21.50;97.70;;;;;;5133426;27;20420;-41
2021/08/24 12:48:14;;;;;;;3.70;1.90;;;21.40;98.60;;;;;;5133187;27;20819;-43
2021/08/24 12:50:39;;;;;;;2.10;1.83;;;21.40;97.40;;;;;;5108751;27;20516;-42
2021/08/24 12:53:23;;;;;;;2.87;2.00;;;21.40;98.50;;;;;;5126526;27;20507;-39
2021/08/24 12:55:49;;;;;;;2.73;1.77;;;21.40;97.70;;;;;;5131104;27;20222;-39
2021/08/24 12:58:44;;;;;;;3.10;2.10;;;21.40;97.70;;;;;;5114547;27;20924;-39
2021/08/24 13:01:12;;;;;;;2.50;2.23;;;21.40;97.70;;;;;;5132668;27;20427;-41
2021/08/24 13:03:54;;;;;;;2.57;2.00;;;21.30;98.60;;;;;;5114345;27;20803;-45
2021/08/24 13:06:41;;;;;;;4.03;1.90;;;21.40;98.00;;;;;;5123307;27;20417;-39
2021/08/24 13:09:26;;;;;;;4.27;1.90;;;21.40;97.20;;;;;;5126452;27;20460;-39
2021/08/24 13:12:07;;;;;;;2.67;2.17;;;21.40;98.00;;;;;;5132682;27;20420;-42